<?xml version="1.0" encoding="utf-8"?>
<gpx xmlns:xsi="http://www.w3.org/2001/XMLSchema-instance" xmlns:xsd="http://www.w3.org/2001/XMLSchema" version="1.1" creator="Shapelink.com" xmlns="http://www.topografix.com/GPX/1/1" xmlns:gpxtpx="http://www.garmin.com/xmlschemas/TrackPointExtension/v1">
  <metadata>
    <name>Löpning 5.36 km, 2019-09-14</name>
    <desc></desc>
    <author><name>Henrik Staffas</name></author> 
    <time>2019-09-14T11:05:43Z</time>
  </metadata>
  <trk>
    <name>Löpning 5.36 km, 2019-09-14</name>
    <trkseg>
      <trkpt lat="59.451052980602" lon="17.969433552906">
        <ele>23.2</ele>
        <time>2019-09-14T11:05:43Z</time>
      </trkpt>
      <trkpt lat="59.451031942033" lon="17.969440677521">
        <ele>24.8</ele>
        <time>2019-09-14T11:05:46Z</time>
      </trkpt>
      <trkpt lat="59.451020291192" lon="17.969442940634">
        <ele>25.6</ele>
        <time>2019-09-14T11:05:47Z</time>
      </trkpt>
      <trkpt lat="59.450988942886" lon="17.96946423066">
        <ele>25.4</ele>
        <time>2019-09-14T11:05:50Z</time>
      </trkpt>
      <trkpt lat="59.450936220735" lon="17.969498428812">
        <ele>25.8</ele>
        <time>2019-09-14T11:05:53Z</time>
      </trkpt>
      <trkpt lat="59.450917445279" lon="17.96951284568">
        <ele>26</ele>
        <time>2019-09-14T11:05:54Z</time>
      </trkpt>
      <trkpt lat="59.450832033718" lon="17.969630862832">
        <ele>27.4</ele>
        <time>2019-09-14T11:05:58Z</time>
      </trkpt>
      <trkpt lat="59.450796159186" lon="17.969754328219">
        <ele>28.6</ele>
        <time>2019-09-14T11:06:01Z</time>
      </trkpt>
      <trkpt lat="59.450770845848" lon="17.969866394222">
        <ele>30</ele>
        <time>2019-09-14T11:06:04Z</time>
      </trkpt>
      <trkpt lat="59.450749136727" lon="17.969958427484">
        <ele>31</ele>
        <time>2019-09-14T11:06:06Z</time>
      </trkpt>
      <trkpt lat="59.450713262195" lon="17.970107290028">
        <ele>32.4</ele>
        <time>2019-09-14T11:06:09Z</time>
      </trkpt>
      <trkpt lat="59.450645704081" lon="17.970339049563">
        <ele>33.4</ele>
        <time>2019-09-14T11:06:14Z</time>
      </trkpt>
      <trkpt lat="59.450631287213" lon="17.970394873017">
        <ele>33.6</ele>
        <time>2019-09-14T11:06:15Z</time>
      </trkpt>
      <trkpt lat="59.450592059921" lon="17.970474417248">
        <ele>33.8</ele>
        <time>2019-09-14T11:06:17Z</time>
      </trkpt>
      <trkpt lat="59.450449567621" lon="17.970765604454">
        <ele>33.4</ele>
        <time>2019-09-14T11:06:24Z</time>
      </trkpt>
      <trkpt lat="59.450283606001" lon="17.971020330395">
        <ele>32.8</ele>
        <time>2019-09-14T11:06:28Z</time>
      </trkpt>
      <trkpt lat="59.450145220832" lon="17.971291820136">
        <ele>32.4</ele>
        <time>2019-09-14T11:06:36Z</time>
      </trkpt>
      <trkpt lat="59.450120661865" lon="17.971420482301">
        <ele>32.6</ele>
        <time>2019-09-14T11:06:38Z</time>
      </trkpt>
      <trkpt lat="59.450050337724" lon="17.971747711677">
        <ele>33.2</ele>
        <time>2019-09-14T11:06:42Z</time>
      </trkpt>
      <trkpt lat="59.450015133744" lon="17.971886180665">
        <ele>33.4</ele>
        <time>2019-09-14T11:06:44Z</time>
      </trkpt>
      <trkpt lat="59.449923603396" lon="17.9722017592">
        <ele>33.8</ele>
        <time>2019-09-14T11:06:52Z</time>
      </trkpt>
      <trkpt lat="59.449854201264" lon="17.972538292485">
        <ele>33.8</ele>
        <time>2019-09-14T11:06:59Z</time>
      </trkpt>
      <trkpt lat="59.449797371982" lon="17.972939617857">
        <ele>33.6</ele>
        <time>2019-09-14T11:07:05Z</time>
      </trkpt>
      <trkpt lat="59.449724868547" lon="17.973305487792">
        <ele>32.8</ele>
        <time>2019-09-14T11:07:10Z</time>
      </trkpt>
      <trkpt lat="59.449700058123" lon="17.973485782461">
        <ele>32.4</ele>
        <time>2019-09-14T11:07:13Z</time>
      </trkpt>
      <trkpt lat="59.449708859118" lon="17.973835978243">
        <ele>32</ele>
        <time>2019-09-14T11:07:21Z</time>
      </trkpt>
      <trkpt lat="59.44971372062" lon="17.973871852775">
        <ele>32</ele>
        <time>2019-09-14T11:07:22Z</time>
      </trkpt>
      <trkpt lat="59.449725203823" lon="17.974118112997">
        <ele>31.2</ele>
        <time>2019-09-14T11:07:26Z</time>
      </trkpt>
      <trkpt lat="59.449713972077" lon="17.974451628798">
        <ele>30.8</ele>
        <time>2019-09-14T11:07:31Z</time>
      </trkpt>
      <trkpt lat="59.449636020407" lon="17.974825880633">
        <ele>30.2</ele>
        <time>2019-09-14T11:07:37Z</time>
      </trkpt>
      <trkpt lat="59.449618083141" lon="17.974893438747">
        <ele>30</ele>
        <time>2019-09-14T11:07:38Z</time>
      </trkpt>
      <trkpt lat="59.449583717351" lon="17.975126539386">
        <ele>29.4</ele>
        <time>2019-09-14T11:07:43Z</time>
      </trkpt>
      <trkpt lat="59.449570557768" lon="17.975262996718">
        <ele>29</ele>
        <time>2019-09-14T11:07:46Z</time>
      </trkpt>
      <trkpt lat="59.449494617754" lon="17.975612773405">
        <ele>29.2</ele>
        <time>2019-09-14T11:07:52Z</time>
      </trkpt>
      <trkpt lat="59.44951674597" lon="17.975759372836">
        <ele>29.2</ele>
        <time>2019-09-14T11:07:56Z</time>
      </trkpt>
      <trkpt lat="59.449526133698" lon="17.975812765539">
        <ele>29</ele>
        <time>2019-09-14T11:07:57Z</time>
      </trkpt>
      <trkpt lat="59.449532755399" lon="17.976046369092">
        <ele>28.8</ele>
        <time>2019-09-14T11:08:00Z</time>
      </trkpt>
      <trkpt lat="59.44957709565" lon="17.97642791318">
        <ele>29</ele>
        <time>2019-09-14T11:08:06Z</time>
      </trkpt>
      <trkpt lat="59.449570893044" lon="17.976821778661">
        <ele>29.2</ele>
        <time>2019-09-14T11:08:11Z</time>
      </trkpt>
      <trkpt lat="59.449559242203" lon="17.977229893372">
        <ele>28.6</ele>
        <time>2019-09-14T11:08:18Z</time>
      </trkpt>
      <trkpt lat="59.449550441208" lon="17.977582016991">
        <ele>28.6</ele>
        <time>2019-09-14T11:08:25Z</time>
      </trkpt>
      <trkpt lat="59.449537868358" lon="17.977674134072">
        <ele>28.6</ele>
        <time>2019-09-14T11:08:27Z</time>
      </trkpt>
      <trkpt lat="59.44949495303" lon="17.977832803439">
        <ele>29.2</ele>
        <time>2019-09-14T11:08:30Z</time>
      </trkpt>
      <trkpt lat="59.449411888401" lon="17.978200349754">
        <ele>29.4</ele>
        <time>2019-09-14T11:08:37Z</time>
      </trkpt>
      <trkpt lat="59.449306947013" lon="17.978448034899">
        <ele>28</ele>
        <time>2019-09-14T11:08:42Z</time>
      </trkpt>
      <trkpt lat="59.449260427468" lon="17.978579379272">
        <ele>27.4</ele>
        <time>2019-09-14T11:08:47Z</time>
      </trkpt>
      <trkpt lat="59.449214829932" lon="17.978633274889">
        <ele>27</ele>
        <time>2019-09-14T11:08:50Z</time>
      </trkpt>
      <trkpt lat="59.449050963787" lon="17.978780963967">
        <ele>26</ele>
        <time>2019-09-14T11:08:57Z</time>
      </trkpt>
      <trkpt lat="59.448986255519" lon="17.978842068018">
        <ele>25.8</ele>
        <time>2019-09-14T11:08:59Z</time>
      </trkpt>
      <trkpt lat="59.448815851492" lon="17.979019429022">
        <ele>24.8</ele>
        <time>2019-09-14T11:09:06Z</time>
      </trkpt>
      <trkpt lat="59.448715101054" lon="17.979120514736">
        <ele>24.6</ele>
        <time>2019-09-14T11:09:09Z</time>
      </trkpt>
      <trkpt lat="59.448541176629" lon="17.979261582113">
        <ele>25</ele>
        <time>2019-09-14T11:09:15Z</time>
      </trkpt>
      <trkpt lat="59.448512007617" lon="17.979281866311">
        <ele>25</ele>
        <time>2019-09-14T11:09:16Z</time>
      </trkpt>
      <trkpt lat="59.448469092289" lon="17.979297708102">
        <ele>25</ele>
        <time>2019-09-14T11:09:18Z</time>
      </trkpt>
      <trkpt lat="59.448273039648" lon="17.979398961454">
        <ele>25.6</ele>
        <time>2019-09-14T11:09:25Z</time>
      </trkpt>
      <trkpt lat="59.448082686699" lon="17.979513625846">
        <ele>25.4</ele>
        <time>2019-09-14T11:09:30Z</time>
      </trkpt>
      <trkpt lat="59.447930639033" lon="17.979600797606">
        <ele>24.4</ele>
        <time>2019-09-14T11:09:34Z</time>
      </trkpt>
      <trkpt lat="59.447720420981" lon="17.979705152261">
        <ele>23.8</ele>
        <time>2019-09-14T11:09:39Z</time>
      </trkpt>
      <trkpt lat="59.447526296177" lon="17.979806321794">
        <ele>23.2</ele>
        <time>2019-09-14T11:09:44Z</time>
      </trkpt>
      <trkpt lat="59.447326890776" lon="17.97981671535">
        <ele>22.6</ele>
        <time>2019-09-14T11:09:50Z</time>
      </trkpt>
      <trkpt lat="59.447308618234" lon="17.979811267115">
        <ele>22.8</ele>
        <time>2019-09-14T11:09:51Z</time>
      </trkpt>
      <trkpt lat="59.44711449343" lon="17.979731806703">
        <ele>24.2</ele>
        <time>2019-09-14T11:10:00Z</time>
      </trkpt>
      <trkpt lat="59.44709521506" lon="17.979723424803">
        <ele>24.6</ele>
        <time>2019-09-14T11:10:01Z</time>
      </trkpt>
      <trkpt lat="59.447059340528" lon="17.979718228025">
        <ele>25</ele>
        <time>2019-09-14T11:10:03Z</time>
      </trkpt>
      <trkpt lat="59.446975940623" lon="17.9797538511">
        <ele>25.6</ele>
        <time>2019-09-14T11:10:06Z</time>
      </trkpt>
      <trkpt lat="59.446887176302" lon="17.979831467494">
        <ele>26.6</ele>
        <time>2019-09-14T11:10:10Z</time>
      </trkpt>
      <trkpt lat="59.446804111673" lon="17.980054258396">
        <ele>26.8</ele>
        <time>2019-09-14T11:10:17Z</time>
      </trkpt>
      <trkpt lat="59.446706881633" lon="17.980200690189">
        <ele>27</ele>
        <time>2019-09-14T11:10:22Z</time>
      </trkpt>
      <trkpt lat="59.446537231977" lon="17.980383667066">
        <ele>27.2</ele>
        <time>2019-09-14T11:10:30Z</time>
      </trkpt>
      <trkpt lat="59.446443438516" lon="17.980517106914">
        <ele>27.4</ele>
        <time>2019-09-14T11:10:34Z</time>
      </trkpt>
      <trkpt lat="59.446362804638" lon="17.980692707719">
        <ele>27.6</ele>
        <time>2019-09-14T11:10:38Z</time>
      </trkpt>
      <trkpt lat="59.446299102198" lon="17.980810221957">
        <ele>27.8</ele>
        <time>2019-09-14T11:10:41Z</time>
      </trkpt>
      <trkpt lat="59.446186784738" lon="17.981000826363">
        <ele>29</ele>
        <time>2019-09-14T11:10:47Z</time>
      </trkpt>
      <trkpt lat="59.446143785591" lon="17.981008034797">
        <ele>29.2</ele>
        <time>2019-09-14T11:10:49Z</time>
      </trkpt>
      <trkpt lat="59.445946224208" lon="17.980924299616">
        <ele>29.2</ele>
        <time>2019-09-14T11:10:58Z</time>
      </trkpt>
      <trkpt lat="59.445790572325" lon="17.980904183056">
        <ele>30.4</ele>
        <time>2019-09-14T11:11:04Z</time>
      </trkpt>
      <trkpt lat="59.445664173273" lon="17.980862441194">
        <ele>31.4</ele>
        <time>2019-09-14T11:11:10Z</time>
      </trkpt>
      <trkpt lat="59.445644727265" lon="17.980851209448">
        <ele>31.6</ele>
        <time>2019-09-14T11:11:11Z</time>
      </trkpt>
      <trkpt lat="59.445611283484" lon="17.980831009069">
        <ele>32.4</ele>
        <time>2019-09-14T11:11:13Z</time>
      </trkpt>
      <trkpt lat="59.445474909971" lon="17.980765043516">
        <ele>33.6</ele>
        <time>2019-09-14T11:11:19Z</time>
      </trkpt>
      <trkpt lat="59.44526879905" lon="17.98069010933">
        <ele>34.2</ele>
        <time>2019-09-14T11:11:25Z</time>
      </trkpt>
      <trkpt lat="59.445168635345" lon="17.980683319991">
        <ele>34.6</ele>
        <time>2019-09-14T11:11:28Z</time>
      </trkpt>
      <trkpt lat="59.445100155222" lon="17.980621461569">
        <ele>35.6</ele>
        <time>2019-09-14T11:11:31Z</time>
      </trkpt>
      <trkpt lat="59.445017258231" lon="17.980546611202">
        <ele>36.2</ele>
        <time>2019-09-14T11:11:34Z</time>
      </trkpt>
      <trkpt lat="59.444932936317" lon="17.980478131079">
        <ele>36.6</ele>
        <time>2019-09-14T11:11:38Z</time>
      </trkpt>
      <trkpt lat="59.444818439563" lon="17.980449884076">
        <ele>37.4</ele>
        <time>2019-09-14T11:11:42Z</time>
      </trkpt>
      <trkpt lat="59.444635378867" lon="17.980303200826">
        <ele>37</ele>
        <time>2019-09-14T11:11:47Z</time>
      </trkpt>
      <trkpt lat="59.444612412461" lon="17.980274870004">
        <ele>37.2</ele>
        <time>2019-09-14T11:11:48Z</time>
      </trkpt>
      <trkpt lat="59.444458017863" lon="17.980081918666">
        <ele>37.8</ele>
        <time>2019-09-14T11:11:54Z</time>
      </trkpt>
      <trkpt lat="59.444436308742" lon="17.980056856785">
        <ele>37.6</ele>
        <time>2019-09-14T11:11:55Z</time>
      </trkpt>
      <trkpt lat="59.444416108363" lon="17.980033303646">
        <ele>37.8</ele>
        <time>2019-09-14T11:11:56Z</time>
      </trkpt>
      <trkpt lat="59.444247548354" lon="17.979956190166">
        <ele>38.4</ele>
        <time>2019-09-14T11:12:04Z</time>
      </trkpt>
      <trkpt lat="59.444043700546" lon="17.979944706963">
        <ele>38.4</ele>
        <time>2019-09-14T11:12:11Z</time>
      </trkpt>
      <trkpt lat="59.443951080551" lon="17.979889554061">
        <ele>38.8</ele>
        <time>2019-09-14T11:12:15Z</time>
      </trkpt>
      <trkpt lat="59.443799535799" lon="17.979659722363">
        <ele>38.6</ele>
        <time>2019-09-14T11:12:25Z</time>
      </trkpt>
      <trkpt lat="59.443657881689" lon="17.979630218075">
        <ele>40</ele>
        <time>2019-09-14T11:12:31Z</time>
      </trkpt>
      <trkpt lat="59.443613792895" lon="17.979645640771">
        <ele>41</ele>
        <time>2019-09-14T11:12:33Z</time>
      </trkpt>
      <trkpt lat="59.44354548041" lon="17.979695010162">
        <ele>42.2</ele>
        <time>2019-09-14T11:12:37Z</time>
      </trkpt>
      <trkpt lat="59.443471468233" lon="17.979759550792">
        <ele>42.6</ele>
        <time>2019-09-14T11:12:40Z</time>
      </trkpt>
      <trkpt lat="59.443416734426" lon="17.979813781685">
        <ele>43.2</ele>
        <time>2019-09-14T11:12:42Z</time>
      </trkpt>
      <trkpt lat="59.443242223268" lon="17.979995836553">
        <ele>44</ele>
        <time>2019-09-14T11:12:48Z</time>
      </trkpt>
      <trkpt lat="59.44313141455" lon="17.980304877206">
        <ele>43.6</ele>
        <time>2019-09-14T11:12:54Z</time>
      </trkpt>
      <trkpt lat="59.443035777071" lon="17.980654737712">
        <ele>42.8</ele>
        <time>2019-09-14T11:13:00Z</time>
      </trkpt>
      <trkpt lat="59.442958244496" lon="17.980880210822">
        <ele>42.2</ele>
        <time>2019-09-14T11:13:05Z</time>
      </trkpt>
      <trkpt lat="59.442812567074" lon="17.981106605941">
        <ele>41.2</ele>
        <time>2019-09-14T11:13:12Z</time>
      </trkpt>
      <trkpt lat="59.442795467998" lon="17.981134433849">
        <ele>41</ele>
        <time>2019-09-14T11:13:13Z</time>
      </trkpt>
      <trkpt lat="59.442704440564" lon="17.981347920842">
        <ele>40</ele>
        <time>2019-09-14T11:13:18Z</time>
      </trkpt>
      <trkpt lat="59.442566390671" lon="17.981652435269">
        <ele>39</ele>
        <time>2019-09-14T11:13:24Z</time>
      </trkpt>
      <trkpt lat="59.442534874727" lon="17.981705241239">
        <ele>38.8</ele>
        <time>2019-09-14T11:13:25Z</time>
      </trkpt>
      <trkpt lat="59.442434208108" lon="17.981842872037">
        <ele>37.8</ele>
        <time>2019-09-14T11:13:29Z</time>
      </trkpt>
      <trkpt lat="59.442413337177" lon="17.981855528706">
        <ele>37.4</ele>
        <time>2019-09-14T11:13:30Z</time>
      </trkpt>
      <trkpt lat="59.442342593941" lon="17.98191805768">
        <ele>37</ele>
        <time>2019-09-14T11:13:33Z</time>
      </trkpt>
      <trkpt lat="59.442297834595" lon="17.981959548085">
        <ele>36.4</ele>
        <time>2019-09-14T11:13:35Z</time>
      </trkpt>
      <trkpt lat="59.442258439665" lon="17.982005564716">
        <ele>35.2</ele>
        <time>2019-09-14T11:13:37Z</time>
      </trkpt>
      <trkpt lat="59.442206220428" lon="17.982083432567">
        <ele>34</ele>
        <time>2019-09-14T11:13:39Z</time>
      </trkpt>
      <trkpt lat="59.442128687853" lon="17.982182338987">
        <ele>33</ele>
        <time>2019-09-14T11:13:42Z</time>
      </trkpt>
      <trkpt lat="59.442028691786" lon="17.982274539887">
        <ele>31.8</ele>
        <time>2019-09-14T11:13:46Z</time>
      </trkpt>
      <trkpt lat="59.441987452838" lon="17.982323490183">
        <ele>31.6</ele>
        <time>2019-09-14T11:13:50Z</time>
      </trkpt>
      <trkpt lat="59.441861389062" lon="17.982632698474">
        <ele>31.6</ele>
        <time>2019-09-14T11:13:55Z</time>
      </trkpt>
      <trkpt lat="59.441740354426" lon="17.982916928703">
        <ele>31.6</ele>
        <time>2019-09-14T11:14:02Z</time>
      </trkpt>
      <trkpt lat="59.441703054971" lon="17.982986330835">
        <ele>31.6</ele>
        <time>2019-09-14T11:14:04Z</time>
      </trkpt>
      <trkpt lat="59.441568693114" lon="17.983247762296">
        <ele>31.4</ele>
        <time>2019-09-14T11:14:10Z</time>
      </trkpt>
      <trkpt lat="59.441489987073" lon="17.983387907664">
        <ele>30.8</ele>
        <time>2019-09-14T11:14:14Z</time>
      </trkpt>
      <trkpt lat="59.441334083733" lon="17.983573147654">
        <ele>30.2</ele>
        <time>2019-09-14T11:14:21Z</time>
      </trkpt>
      <trkpt lat="59.441187903397" lon="17.983725027682">
        <ele>29.8</ele>
        <time>2019-09-14T11:14:28Z</time>
      </trkpt>
      <trkpt lat="59.441158902023" lon="17.983744222233">
        <ele>29.6</ele>
        <time>2019-09-14T11:14:29Z</time>
      </trkpt>
      <trkpt lat="59.440937787501" lon="17.983836339314">
        <ele>29.8</ele>
        <time>2019-09-14T11:14:36Z</time>
      </trkpt>
      <trkpt lat="59.440735113159" lon="17.983989560446">
        <ele>29.8</ele>
        <time>2019-09-14T11:14:43Z</time>
      </trkpt>
      <trkpt lat="59.440627657201" lon="17.984154683876">
        <ele>30.8</ele>
        <time>2019-09-14T11:14:48Z</time>
      </trkpt>
      <trkpt lat="59.44047351406" lon="17.9843890418">
        <ele>30.4</ele>
        <time>2019-09-14T11:14:54Z</time>
      </trkpt>
      <trkpt lat="59.440416684778" lon="17.984544358407">
        <ele>29.6</ele>
        <time>2019-09-14T11:14:57Z</time>
      </trkpt>
      <trkpt lat="59.440321382575" lon="17.984749128224">
        <ele>28.4</ele>
        <time>2019-09-14T11:15:01Z</time>
      </trkpt>
      <trkpt lat="59.440269917709" lon="17.984884915004">
        <ele>27</ele>
        <time>2019-09-14T11:15:03Z</time>
      </trkpt>
      <trkpt lat="59.440173609678" lon="17.985099491644">
        <ele>26</ele>
        <time>2019-09-14T11:15:07Z</time>
      </trkpt>
      <trkpt lat="59.440031368835" lon="17.985354469042">
        <ele>25</ele>
        <time>2019-09-14T11:15:15Z</time>
      </trkpt>
      <trkpt lat="59.440004798212" lon="17.985378441276">
        <ele>24.8</ele>
        <time>2019-09-14T11:15:16Z</time>
      </trkpt>
      <trkpt lat="59.439833220719" lon="17.985573320451">
        <ele>23.8</ele>
        <time>2019-09-14T11:15:22Z</time>
      </trkpt>
      <trkpt lat="59.43967807175" lon="17.985686727558">
        <ele>22.6</ele>
        <time>2019-09-14T11:15:28Z</time>
      </trkpt>
      <trkpt lat="59.439628115626" lon="17.985756381147">
        <ele>22.2</ele>
        <time>2019-09-14T11:15:30Z</time>
      </trkpt>
      <trkpt lat="59.43948864081" lon="17.986108420947">
        <ele>23</ele>
        <time>2019-09-14T11:15:37Z</time>
      </trkpt>
      <trkpt lat="59.439451257536" lon="17.986285195218">
        <ele>23.8</ele>
        <time>2019-09-14T11:15:40Z</time>
      </trkpt>
      <trkpt lat="59.439393422426" lon="17.986495664727">
        <ele>25</ele>
        <time>2019-09-14T11:15:43Z</time>
      </trkpt>
      <trkpt lat="59.439382777413" lon="17.986567665248">
        <ele>25.8</ele>
        <time>2019-09-14T11:15:44Z</time>
      </trkpt>
      <trkpt lat="59.439378586463" lon="17.986646790384">
        <ele>26.2</ele>
        <time>2019-09-14T11:15:45Z</time>
      </trkpt>
      <trkpt lat="59.439405324724" lon="17.986960357263">
        <ele>26.8</ele>
        <time>2019-09-14T11:15:50Z</time>
      </trkpt>
      <trkpt lat="59.439487886439" lon="17.987278366549">
        <ele>26.8</ele>
        <time>2019-09-14T11:15:56Z</time>
      </trkpt>
      <trkpt lat="59.439575142018" lon="17.987598722767">
        <ele>25.6</ele>
        <time>2019-09-14T11:16:02Z</time>
      </trkpt>
      <trkpt lat="59.439601461184" lon="17.987695952807">
        <ele>25</ele>
        <time>2019-09-14T11:16:04Z</time>
      </trkpt>
      <trkpt lat="59.439676563008" lon="17.987930310731">
        <ele>24</ele>
        <time>2019-09-14T11:16:10Z</time>
      </trkpt>
      <trkpt lat="59.439684358175" lon="17.987988564936">
        <ele>23.6</ele>
        <time>2019-09-14T11:16:11Z</time>
      </trkpt>
      <trkpt lat="59.439746048959" lon="17.988331803741">
        <ele>23.8</ele>
        <time>2019-09-14T11:16:18Z</time>
      </trkpt>
      <trkpt lat="59.439774212143" lon="17.988888780996">
        <ele>23</ele>
        <time>2019-09-14T11:16:24Z</time>
      </trkpt>
      <trkpt lat="59.439776810532" lon="17.988942425156">
        <ele>22.8</ele>
        <time>2019-09-14T11:16:25Z</time>
      </trkpt>
      <trkpt lat="59.439799106386" lon="17.989292620938">
        <ele>22.4</ele>
        <time>2019-09-14T11:16:31Z</time>
      </trkpt>
      <trkpt lat="59.439808494114" lon="17.989669471162">
        <ele>22.4</ele>
        <time>2019-09-14T11:16:39Z</time>
      </trkpt>
      <trkpt lat="59.439846631759" lon="17.990041962798">
        <ele>21.8</ele>
        <time>2019-09-14T11:16:46Z</time>
      </trkpt>
      <trkpt lat="59.439835148556" lon="17.990436079736">
        <ele>21.6</ele>
        <time>2019-09-14T11:16:54Z</time>
      </trkpt>
      <trkpt lat="59.439811511598" lon="17.990817540005">
        <ele>22</ele>
        <time>2019-09-14T11:17:01Z</time>
      </trkpt>
      <trkpt lat="59.439811427779" lon="17.99086154498">
        <ele>22</ele>
        <time>2019-09-14T11:17:02Z</time>
      </trkpt>
      <trkpt lat="59.439789886296" lon="17.991221379947">
        <ele>22.6</ele>
        <time>2019-09-14T11:17:09Z</time>
      </trkpt>
      <trkpt lat="59.439802207689" lon="17.991312407381">
        <ele>23</ele>
        <time>2019-09-14T11:17:11Z</time>
      </trkpt>
      <trkpt lat="59.439860294256" lon="17.991685401931">
        <ele>22.4</ele>
        <time>2019-09-14T11:17:18Z</time>
      </trkpt>
      <trkpt lat="59.439847302311" lon="17.99194448646">
        <ele>21.8</ele>
        <time>2019-09-14T11:17:23Z</time>
      </trkpt>
      <trkpt lat="59.439867754147" lon="17.992262663384">
        <ele>23</ele>
        <time>2019-09-14T11:17:31Z</time>
      </trkpt>
      <trkpt lat="59.439915782434" lon="17.992414124317">
        <ele>23.8</ele>
        <time>2019-09-14T11:17:36Z</time>
      </trkpt>
      <trkpt lat="59.43995551264" lon="17.992467433201">
        <ele>24.2</ele>
        <time>2019-09-14T11:17:38Z</time>
      </trkpt>
      <trkpt lat="59.44002843517" lon="17.992544211405">
        <ele>25.4</ele>
        <time>2019-09-14T11:17:42Z</time>
      </trkpt>
      <trkpt lat="59.440129269427" lon="17.992599783402">
        <ele>25.8</ele>
        <time>2019-09-14T11:17:46Z</time>
      </trkpt>
      <trkpt lat="59.440324064783" lon="17.992725511902">
        <ele>26.4</ele>
        <time>2019-09-14T11:17:54Z</time>
      </trkpt>
      <trkpt lat="59.440384917377" lon="17.992800446088">
        <ele>26.6</ele>
        <time>2019-09-14T11:17:57Z</time>
      </trkpt>
      <trkpt lat="59.440559093259" lon="17.992907315313">
        <ele>26.4</ele>
        <time>2019-09-14T11:18:03Z</time>
      </trkpt>
      <trkpt lat="59.440729581105" lon="17.993049053242">
        <ele>26.8</ele>
        <time>2019-09-14T11:18:10Z</time>
      </trkpt>
      <trkpt lat="59.440904511358" lon="17.993210907731">
        <ele>25.8</ele>
        <time>2019-09-14T11:18:17Z</time>
      </trkpt>
      <trkpt lat="59.440971734196" lon="17.993303024812">
        <ele>25.4</ele>
        <time>2019-09-14T11:18:20Z</time>
      </trkpt>
      <trkpt lat="59.441047171296" lon="17.993391118581">
        <ele>24.4</ele>
        <time>2019-09-14T11:18:23Z</time>
      </trkpt>
      <trkpt lat="59.441140545662" lon="17.993533610881">
        <ele>23.2</ele>
        <time>2019-09-14T11:18:27Z</time>
      </trkpt>
      <trkpt lat="59.441207097948" lon="17.993619609175">
        <ele>22</ele>
        <time>2019-09-14T11:18:30Z</time>
      </trkpt>
      <trkpt lat="59.441231070182" lon="17.993646431255">
        <ele>21.4</ele>
        <time>2019-09-14T11:18:31Z</time>
      </trkpt>
      <trkpt lat="59.441275494252" lon="17.99370300908">
        <ele>20.6</ele>
        <time>2019-09-14T11:18:33Z</time>
      </trkpt>
      <trkpt lat="59.441456627111" lon="17.993817589653">
        <ele>20.4</ele>
        <time>2019-09-14T11:18:40Z</time>
      </trkpt>
      <trkpt lat="59.441628120785" lon="17.993840053145">
        <ele>21.8</ele>
        <time>2019-09-14T11:18:48Z</time>
      </trkpt>
      <trkpt lat="59.441819982476" lon="17.993927476362">
        <ele>22.6</ele>
        <time>2019-09-14T11:18:55Z</time>
      </trkpt>
      <trkpt lat="59.441842948882" lon="17.993957399745">
        <ele>22.8</ele>
        <time>2019-09-14T11:18:56Z</time>
      </trkpt>
      <trkpt lat="59.441906316046" lon="17.993989586241">
        <ele>23.4</ele>
        <time>2019-09-14T11:18:58Z</time>
      </trkpt>
      <trkpt lat="59.441958619102" lon="17.994047253713">
        <ele>23.8</ele>
        <time>2019-09-14T11:19:00Z</time>
      </trkpt>
      <trkpt lat="59.441991643788" lon="17.994074746345">
        <ele>24</ele>
        <time>2019-09-14T11:19:01Z</time>
      </trkpt>
      <trkpt lat="59.442182248194" lon="17.994114644189">
        <ele>23.8</ele>
        <time>2019-09-14T11:19:07Z</time>
      </trkpt>
      <trkpt lat="59.442245028625" lon="17.994138532604">
        <ele>22.8</ele>
        <time>2019-09-14T11:19:09Z</time>
      </trkpt>
      <trkpt lat="59.442336223697" lon="17.994138197328">
        <ele>21.8</ele>
        <time>2019-09-14T11:19:12Z</time>
      </trkpt>
      <trkpt lat="59.442500760394" lon="17.994109782687">
        <ele>20.4</ele>
        <time>2019-09-14T11:19:17Z</time>
      </trkpt>
      <trkpt lat="59.442600421185" lon="17.993996627037">
        <ele>19.4</ele>
        <time>2019-09-14T11:19:21Z</time>
      </trkpt>
      <trkpt lat="59.442730172997" lon="17.993880453903">
        <ele>18.2</ele>
        <time>2019-09-14T11:19:26Z</time>
      </trkpt>
      <trkpt lat="59.442855901497" lon="17.993723544735">
        <ele>19.2</ele>
        <time>2019-09-14T11:19:33Z</time>
      </trkpt>
      <trkpt lat="59.443025048239" lon="17.993604857031">
        <ele>19.8</ele>
        <time>2019-09-14T11:19:40Z</time>
      </trkpt>
      <trkpt lat="59.443204085623" lon="17.993552553975">
        <ele>19</ele>
        <time>2019-09-14T11:19:46Z</time>
      </trkpt>
      <trkpt lat="59.443294274867" lon="17.993543669161">
        <ele>18.2</ele>
        <time>2019-09-14T11:19:49Z</time>
      </trkpt>
      <trkpt lat="59.443384967025" lon="17.993503268403">
        <ele>16.8</ele>
        <time>2019-09-14T11:19:52Z</time>
      </trkpt>
      <trkpt lat="59.443512958638" lon="17.993426825475">
        <ele>15.8</ele>
        <time>2019-09-14T11:19:56Z</time>
      </trkpt>
      <trkpt lat="59.443612200334" lon="17.993289362315">
        <ele>14.6</ele>
        <time>2019-09-14T11:20:00Z</time>
      </trkpt>
      <trkpt lat="59.443754692634" lon="17.992999851489">
        <ele>14</ele>
        <time>2019-09-14T11:20:08Z</time>
      </trkpt>
      <trkpt lat="59.443833231037" lon="17.99274328153">
        <ele>15.6</ele>
        <time>2019-09-14T11:20:15Z</time>
      </trkpt>
      <trkpt lat="59.443908835775" lon="17.992558544454">
        <ele>16.6</ele>
        <time>2019-09-14T11:20:20Z</time>
      </trkpt>
      <trkpt lat="59.443973124948" lon="17.992389732988">
        <ele>17.8</ele>
        <time>2019-09-14T11:20:24Z</time>
      </trkpt>
      <trkpt lat="59.444053926464" lon="17.992110950994">
        <ele>18.8</ele>
        <time>2019-09-14T11:20:30Z</time>
      </trkpt>
      <trkpt lat="59.444116706895" lon="17.991857649976">
        <ele>20</ele>
        <time>2019-09-14T11:20:36Z</time>
      </trkpt>
      <trkpt lat="59.44416238825" lon="17.991741476842">
        <ele>21</ele>
        <time>2019-09-14T11:20:40Z</time>
      </trkpt>
      <trkpt lat="59.444213434021" lon="17.991653299254">
        <ele>22.2</ele>
        <time>2019-09-14T11:20:44Z</time>
      </trkpt>
      <trkpt lat="59.444286691827" lon="17.991611808849">
        <ele>23.2</ele>
        <time>2019-09-14T11:20:48Z</time>
      </trkpt>
      <trkpt lat="59.444492048377" lon="17.991560511621">
        <ele>23.6</ele>
        <time>2019-09-14T11:20:57Z</time>
      </trkpt>
      <trkpt lat="59.444686927552" lon="17.991531510247">
        <ele>23.8</ele>
        <time>2019-09-14T11:21:03Z</time>
      </trkpt>
      <trkpt lat="59.444775440416" lon="17.991539724509">
        <ele>24.4</ele>
        <time>2019-09-14T11:21:07Z</time>
      </trkpt>
      <trkpt lat="59.444887757876" lon="17.991558751422">
        <ele>25.6</ele>
        <time>2019-09-14T11:21:12Z</time>
      </trkpt>
      <trkpt lat="59.444945844443" lon="17.991558667603">
        <ele>26.6</ele>
        <time>2019-09-14T11:21:15Z</time>
      </trkpt>
      <trkpt lat="59.445011726177" lon="17.991578616525">
        <ele>27.8</ele>
        <time>2019-09-14T11:21:18Z</time>
      </trkpt>
      <trkpt lat="59.445080541576" lon="17.991598146352">
        <ele>29.2</ele>
        <time>2019-09-14T11:21:21Z</time>
      </trkpt>
      <trkpt lat="59.445099652308" lon="17.991616921808">
        <ele>29.6</ele>
        <time>2019-09-14T11:21:22Z</time>
      </trkpt>
      <trkpt lat="59.44515396702" lon="17.99161591598">
        <ele>30.8</ele>
        <time>2019-09-14T11:21:24Z</time>
      </trkpt>
      <trkpt lat="59.445200151289" lon="17.991628907925">
        <ele>31.2</ele>
        <time>2019-09-14T11:21:26Z</time>
      </trkpt>
      <trkpt lat="59.445259411322" lon="17.991704009749">
        <ele>31.8</ele>
        <time>2019-09-14T11:21:29Z</time>
      </trkpt>
      <trkpt lat="59.44538363108" lon="17.991949934695">
        <ele>32.6</ele>
        <time>2019-09-14T11:21:36Z</time>
      </trkpt>
      <trkpt lat="59.445427468417" lon="17.99204674564">
        <ele>33</ele>
        <time>2019-09-14T11:21:39Z</time>
      </trkpt>
      <trkpt lat="59.445526207199" lon="17.992154453055">
        <ele>34</ele>
        <time>2019-09-14T11:21:45Z</time>
      </trkpt>
      <trkpt lat="59.445724690591" lon="17.992158560186">
        <ele>34</ele>
        <time>2019-09-14T11:21:54Z</time>
      </trkpt>
      <trkpt lat="59.445908086563" lon="17.992101898542">
        <ele>34</ele>
        <time>2019-09-14T11:22:04Z</time>
      </trkpt>
      <trkpt lat="59.44627965619" lon="17.992044482527">
        <ele>34.8</ele>
        <time>2019-09-14T11:22:18Z</time>
      </trkpt>
      <trkpt lat="59.446480989428" lon="17.992051104228">
        <ele>33.2</ele>
        <time>2019-09-14T11:22:24Z</time>
      </trkpt>
      <trkpt lat="59.446516277227" lon="17.99205093659">
        <ele>33</ele>
        <time>2019-09-14T11:22:25Z</time>
      </trkpt>
      <trkpt lat="59.446693386774" lon="17.991971727635">
        <ele>31.6</ele>
        <time>2019-09-14T11:22:31Z</time>
      </trkpt>
      <trkpt lat="59.446874938728" lon="17.991860499822">
        <ele>30.8</ele>
        <time>2019-09-14T11:22:38Z</time>
      </trkpt>
      <trkpt lat="59.446924559576" lon="17.991811633345">
        <ele>30.6</ele>
        <time>2019-09-14T11:22:41Z</time>
      </trkpt>
      <trkpt lat="59.44709353868" lon="17.991614407238">
        <ele>30.6</ele>
        <time>2019-09-14T11:22:49Z</time>
      </trkpt>
      <trkpt lat="59.447274336263" lon="17.99144492522">
        <ele>29.6</ele>
        <time>2019-09-14T11:22:59Z</time>
      </trkpt>
      <trkpt lat="59.447455804398" lon="17.991242669973">
        <ele>28.8</ele>
        <time>2019-09-14T11:23:05Z</time>
      </trkpt>
      <trkpt lat="59.44759896725" lon="17.990953326785">
        <ele>29.6</ele>
        <time>2019-09-14T11:23:13Z</time>
      </trkpt>
      <trkpt lat="59.447702818991" lon="17.990657613353">
        <ele>30</ele>
        <time>2019-09-14T11:23:19Z</time>
      </trkpt>
      <trkpt lat="59.447780435385" lon="17.99032258881">
        <ele>30.2</ele>
        <time>2019-09-14T11:23:26Z</time>
      </trkpt>
      <trkpt lat="59.447918066183" lon="17.990050679974">
        <ele>30.2</ele>
        <time>2019-09-14T11:23:32Z</time>
      </trkpt>
      <trkpt lat="59.447930387576" lon="17.989896033919">
        <ele>30.8</ele>
        <time>2019-09-14T11:23:36Z</time>
      </trkpt>
      <trkpt lat="59.447995263482" lon="17.989542317739">
        <ele>30.4</ele>
        <time>2019-09-14T11:23:43Z</time>
      </trkpt>
      <trkpt lat="59.448091068599" lon="17.989328830746">
        <ele>29.6</ele>
        <time>2019-09-14T11:23:47Z</time>
      </trkpt>
      <trkpt lat="59.448143958388" lon="17.989189439749">
        <ele>28.6</ele>
        <time>2019-09-14T11:23:50Z</time>
      </trkpt>
      <trkpt lat="59.448186035526" lon="17.989069997674">
        <ele>27.2</ele>
        <time>2019-09-14T11:23:53Z</time>
      </trkpt>
      <trkpt lat="59.448203888973" lon="17.989035715703">
        <ele>27</ele>
        <time>2019-09-14T11:23:54Z</time>
      </trkpt>
      <trkpt lat="59.448258455142" lon="17.988967570856">
        <ele>26</ele>
        <time>2019-09-14T11:23:57Z</time>
      </trkpt>
      <trkpt lat="59.448358702666" lon="17.988859695803">
        <ele>24.8</ele>
        <time>2019-09-14T11:24:01Z</time>
      </trkpt>
      <trkpt lat="59.448516952938" lon="17.98865459071">
        <ele>24.2</ele>
        <time>2019-09-14T11:24:10Z</time>
      </trkpt>
      <trkpt lat="59.448581074473" lon="17.988534561902">
        <ele>24.4</ele>
        <time>2019-09-14T11:24:15Z</time>
      </trkpt>
      <trkpt lat="59.448673694468" lon="17.988406821746">
        <ele>24.8</ele>
        <time>2019-09-14T11:24:20Z</time>
      </trkpt>
      <trkpt lat="59.448870333842" lon="17.988277656667">
        <ele>24.8</ele>
        <time>2019-09-14T11:24:29Z</time>
      </trkpt>
      <trkpt lat="59.449054987099" lon="17.988256953374">
        <ele>24.2</ele>
        <time>2019-09-14T11:24:36Z</time>
      </trkpt>
      <trkpt lat="59.449228324791" lon="17.988217977539">
        <ele>23.6</ele>
        <time>2019-09-14T11:24:41Z</time>
      </trkpt>
      <trkpt lat="59.449428400744" lon="17.988085292062">
        <ele>23.4</ele>
        <time>2019-09-14T11:24:46Z</time>
      </trkpt>
      <trkpt lat="59.449599056228" lon="17.98786082478">
        <ele>23.4</ele>
        <time>2019-09-14T11:24:52Z</time>
      </trkpt>
      <trkpt lat="59.449741297071" lon="17.987600650604">
        <ele>23.6</ele>
        <time>2019-09-14T11:24:58Z</time>
      </trkpt>
      <trkpt lat="59.449808268452" lon="17.987216172851">
        <ele>23.4</ele>
        <time>2019-09-14T11:25:06Z</time>
      </trkpt>
      <trkpt lat="59.449821428035" lon="17.987169066573">
        <ele>23.2</ele>
        <time>2019-09-14T11:25:07Z</time>
      </trkpt>
      <trkpt lat="59.449878424955" lon="17.987011403034">
        <ele>22.4</ele>
        <time>2019-09-14T11:25:10Z</time>
      </trkpt>
      <trkpt lat="59.449962160136" lon="17.986815350393">
        <ele>21.4</ele>
        <time>2019-09-14T11:25:14Z</time>
      </trkpt>
      <trkpt lat="59.450001638885" lon="17.986760700405">
        <ele>20.4</ele>
        <time>2019-09-14T11:25:16Z</time>
      </trkpt>
      <trkpt lat="59.450176820595" lon="17.986610077662">
        <ele>19.6</ele>
        <time>2019-09-14T11:25:25Z</time>
      </trkpt>
      <trkpt lat="59.450297771412" lon="17.98654654286">
        <ele>20.2</ele>
        <time>2019-09-14T11:25:32Z</time>
      </trkpt>
      <trkpt lat="59.450393995624" lon="17.986467753">
        <ele>20</ele>
        <time>2019-09-14T11:25:35Z</time>
      </trkpt>
      <trkpt lat="59.450540343598" lon="17.986279411707">
        <ele>19.4</ele>
        <time>2019-09-14T11:25:41Z</time>
      </trkpt>
      <trkpt lat="59.450634304697" lon="17.986037845349">
        <ele>18.4</ele>
        <time>2019-09-14T11:25:48Z</time>
      </trkpt>
      <trkpt lat="59.450670765962" lon="17.985755207681">
        <ele>18.2</ele>
        <time>2019-09-14T11:25:55Z</time>
      </trkpt>
      <trkpt lat="59.45068099188" lon="17.985696282924">
        <ele>18.2</ele>
        <time>2019-09-14T11:25:57Z</time>
      </trkpt>
      <trkpt lat="59.450807055656" lon="17.985371987213">
        <ele>19</ele>
        <time>2019-09-14T11:26:04Z</time>
      </trkpt>
      <trkpt lat="59.450902609316" lon="17.985150705053">
        <ele>19.4</ele>
        <time>2019-09-14T11:26:08Z</time>
      </trkpt>
      <trkpt lat="59.451038982829" lon="17.98482825336">
        <ele>19.8</ele>
        <time>2019-09-14T11:26:15Z</time>
      </trkpt>
      <trkpt lat="59.451136464326" lon="17.984456851371">
        <ele>19.4</ele>
        <time>2019-09-14T11:26:21Z</time>
      </trkpt>
      <trkpt lat="59.451227994674" lon="17.984130376366">
        <ele>18.8</ele>
        <time>2019-09-14T11:26:28Z</time>
      </trkpt>
      <trkpt lat="59.451304437602" lon="17.983808762863">
        <ele>19</ele>
        <time>2019-09-14T11:26:35Z</time>
      </trkpt>
      <trkpt lat="59.451349196948" lon="17.983401067247">
        <ele>18.6</ele>
        <time>2019-09-14T11:26:45Z</time>
      </trkpt>
      <trkpt lat="59.451389597706" lon="17.98333376059">
        <ele>18.2</ele>
        <time>2019-09-14T11:26:47Z</time>
      </trkpt>
      <trkpt lat="59.45152840197" lon="17.983142485632">
        <ele>18.6</ele>
        <time>2019-09-14T11:26:56Z</time>
      </trkpt>
      <trkpt lat="59.451604593441" lon="17.983103677435">
        <ele>19.2</ele>
        <time>2019-09-14T11:27:00Z</time>
      </trkpt>
      <trkpt lat="59.451619513223" lon="17.983103006883">
        <ele>19</ele>
        <time>2019-09-14T11:27:01Z</time>
      </trkpt>
      <trkpt lat="59.45167843798" lon="17.983070401292">
        <ele>19.4</ele>
        <time>2019-09-14T11:27:03Z</time>
      </trkpt>
      <trkpt lat="59.451749600311" lon="17.983028910887">
        <ele>19.2</ele>
        <time>2019-09-14T11:27:06Z</time>
      </trkpt>
      <trkpt lat="59.451920591071" lon="17.98289622541">
        <ele>18.4</ele>
        <time>2019-09-14T11:27:12Z</time>
      </trkpt>
      <trkpt lat="59.451954705404" lon="17.982877952868">
        <ele>18.2</ele>
        <time>2019-09-14T11:27:13Z</time>
      </trkpt>
      <trkpt lat="59.452140951222" lon="17.982768736711">
        <ele>18.2</ele>
        <time>2019-09-14T11:27:18Z</time>
      </trkpt>
      <trkpt lat="59.452303224806" lon="17.982613671561">
        <ele>18.4</ele>
        <time>2019-09-14T11:27:24Z</time>
      </trkpt>
      <trkpt lat="59.45238670853" lon="17.982485009396">
        <ele>19.4</ele>
        <time>2019-09-14T11:27:28Z</time>
      </trkpt>
      <trkpt lat="59.452427025469" lon="17.982288202384">
        <ele>20.6</ele>
        <time>2019-09-14T11:27:33Z</time>
      </trkpt>
      <trkpt lat="59.452425935822" lon="17.982251238205">
        <ele>20.6</ele>
        <time>2019-09-14T11:27:34Z</time>
      </trkpt>
      <trkpt lat="59.452411686592" lon="17.982023418163">
        <ele>21.6</ele>
        <time>2019-09-14T11:27:41Z</time>
      </trkpt>
      <trkpt lat="59.452388133453" lon="17.981903724631">
        <ele>21.6</ele>
        <time>2019-09-14T11:27:44Z</time>
      </trkpt>
      <trkpt lat="59.452335662759" lon="17.981708174904">
        <ele>22.2</ele>
        <time>2019-09-14T11:27:49Z</time>
      </trkpt>
      <trkpt lat="59.452342200641" lon="17.981673390019">
        <ele>22.8</ele>
        <time>2019-09-14T11:27:50Z</time>
      </trkpt>
      <trkpt lat="59.452332309999" lon="17.981558222713">
        <ele>24.4</ele>
        <time>2019-09-14T11:27:53Z</time>
      </trkpt>
      <trkpt lat="59.452311355249" lon="17.981383963012">
        <ele>24.8</ele>
        <time>2019-09-14T11:27:56Z</time>
      </trkpt>
      <trkpt lat="59.452260728573" lon="17.98100862153">
        <ele>24.4</ele>
        <time>2019-09-14T11:28:02Z</time>
      </trkpt>
      <trkpt lat="59.452252933406" lon="17.980964448917">
        <ele>24.4</ele>
        <time>2019-09-14T11:28:03Z</time>
      </trkpt>
      <trkpt lat="59.452223177661" lon="17.98069430028">
        <ele>24.4</ele>
        <time>2019-09-14T11:28:11Z</time>
      </trkpt>
      <trkpt lat="59.452186297301" lon="17.980597237878">
        <ele>24.6</ele>
        <time>2019-09-14T11:28:15Z</time>
      </trkpt>
      <trkpt lat="59.452147237647" lon="17.980505456073">
        <ele>25</ele>
        <time>2019-09-14T11:28:18Z</time>
      </trkpt>
      <trkpt lat="59.45210088574" lon="17.980434545199">
        <ele>25.4</ele>
        <time>2019-09-14T11:28:20Z</time>
      </trkpt>
      <trkpt lat="59.45201455217" lon="17.98032465849">
        <ele>26.4</ele>
        <time>2019-09-14T11:28:24Z</time>
      </trkpt>
      <trkpt lat="59.451912460628" lon="17.98020228275">
        <ele>27.6</ele>
        <time>2019-09-14T11:28:29Z</time>
      </trkpt>
      <trkpt lat="59.451870802585" lon="17.980140005233">
        <ele>28</ele>
        <time>2019-09-14T11:28:32Z</time>
      </trkpt>
      <trkpt lat="59.451813218932" lon="17.980060963916">
        <ele>28.6</ele>
        <time>2019-09-14T11:28:35Z</time>
      </trkpt>
      <trkpt lat="59.451745660818" lon="17.979911514639">
        <ele>29.8</ele>
        <time>2019-09-14T11:28:39Z</time>
      </trkpt>
      <trkpt lat="59.451630409693" lon="17.979609263325">
        <ele>30.4</ele>
        <time>2019-09-14T11:28:46Z</time>
      </trkpt>
      <trkpt lat="59.451566204339" lon="17.979232077825">
        <ele>30.6</ele>
        <time>2019-09-14T11:28:54Z</time>
      </trkpt>
      <trkpt lat="59.451566455796" lon="17.979186145013">
        <ele>30.6</ele>
        <time>2019-09-14T11:28:55Z</time>
      </trkpt>
      <trkpt lat="59.451581878492" lon="17.979052705165">
        <ele>30.8</ele>
        <time>2019-09-14T11:28:58Z</time>
      </trkpt>
      <trkpt lat="59.451588919288" lon="17.979013142597">
        <ele>30.8</ele>
        <time>2019-09-14T11:28:59Z</time>
      </trkpt>
      <trkpt lat="59.451594283704" lon="17.97900031829">
        <ele>31</ele>
        <time>2019-09-14T11:29:00Z</time>
      </trkpt>
      <trkpt lat="59.451610879866" lon="17.978970394907">
        <ele>31.6</ele>
        <time>2019-09-14T11:29:03Z</time>
      </trkpt>
      <trkpt lat="59.451621021965" lon="17.978949691614">
        <ele>31.8</ele>
        <time>2019-09-14T11:29:04Z</time>
      </trkpt>
      <trkpt lat="59.451649268968" lon="17.978961007179">
        <ele>32</ele>
        <time>2019-09-14T11:29:06Z</time>
      </trkpt>
      <trkpt lat="59.451688915355" lon="17.978976681332">
        <ele>32.4</ele>
        <time>2019-09-14T11:29:09Z</time>
      </trkpt>
      <trkpt lat="59.451768040491" lon="17.978964024663">
        <ele>33</ele>
        <time>2019-09-14T11:29:14Z</time>
      </trkpt>
      <trkpt lat="59.451814308579" lon="17.97892488119">
        <ele>33.4</ele>
        <time>2019-09-14T11:29:18Z</time>
      </trkpt>
      <trkpt lat="59.451865941083" lon="17.978890766857">
        <ele>34</ele>
        <time>2019-09-14T11:29:21Z</time>
      </trkpt>
      <trkpt lat="59.451899049588" lon="17.978851288108">
        <ele>34.2</ele>
        <time>2019-09-14T11:29:22Z</time>
      </trkpt>
      <trkpt lat="59.45197683362" lon="17.978831171548">
        <ele>35.6</ele>
        <time>2019-09-14T11:29:26Z</time>
      </trkpt>
      <trkpt lat="59.45201539036" lon="17.978842319475">
        <ele>35.8</ele>
        <time>2019-09-14T11:29:29Z</time>
      </trkpt>
      <trkpt lat="59.452217142693" lon="17.978807869866">
        <ele>35.2</ele>
        <time>2019-09-14T11:29:37Z</time>
      </trkpt>
      <trkpt lat="59.452414871714" lon="17.97876981604">
        <ele>34.6</ele>
        <time>2019-09-14T11:29:44Z</time>
      </trkpt>
      <trkpt lat="59.452583766999" lon="17.978687841058">
        <ele>34.6</ele>
        <time>2019-09-14T11:29:52Z</time>
      </trkpt>
      <trkpt lat="59.452752662284" lon="17.978560100902">
        <ele>35.2</ele>
        <time>2019-09-14T11:29:59Z</time>
      </trkpt>
      <trkpt lat="59.452906218692" lon="17.978366311374">
        <ele>35.2</ele>
        <time>2019-09-14T11:30:06Z</time>
      </trkpt>
      <trkpt lat="59.45294745764" lon="17.978252401353">
        <ele>35.6</ele>
        <time>2019-09-14T11:30:09Z</time>
      </trkpt>
      <trkpt lat="59.453054159227" lon="17.978078057833">
        <ele>36.8</ele>
        <time>2019-09-14T11:30:15Z</time>
      </trkpt>
      <trkpt lat="59.453161782823" lon="17.977855853664">
        <ele>38</ele>
        <time>2019-09-14T11:30:22Z</time>
      </trkpt>
      <trkpt lat="59.453306789693" lon="17.977638175721">
        <ele>38</ele>
        <time>2019-09-14T11:30:29Z</time>
      </trkpt>
      <trkpt lat="59.453487838733" lon="17.977534575437">
        <ele>38</ele>
        <time>2019-09-14T11:30:37Z</time>
      </trkpt>
      <trkpt lat="59.453682131175" lon="17.977437764492">
        <ele>37.8</ele>
        <time>2019-09-14T11:30:44Z</time>
      </trkpt>
      <trkpt lat="59.453785060907" lon="17.977341037366">
        <ele>36.8</ele>
        <time>2019-09-14T11:30:48Z</time>
      </trkpt>
      <trkpt lat="59.45394155098" lon="17.97710852346">
        <ele>35.4</ele>
        <time>2019-09-14T11:30:55Z</time>
      </trkpt>
      <trkpt lat="59.453998883176" lon="17.977008024479">
        <ele>34.4</ele>
        <time>2019-09-14T11:30:58Z</time>
      </trkpt>
      <trkpt lat="59.454072560077" lon="17.976880284323">
        <ele>33.4</ele>
        <time>2019-09-14T11:31:02Z</time>
      </trkpt>
      <trkpt lat="59.454184709899" lon="17.976669982452">
        <ele>32.4</ele>
        <time>2019-09-14T11:31:08Z</time>
      </trkpt>
      <trkpt lat="59.454327369837" lon="17.97638097454">
        <ele>31.4</ele>
        <time>2019-09-14T11:31:15Z</time>
      </trkpt>
      <trkpt lat="59.45435142589" lon="17.976353565727">
        <ele>31.2</ele>
        <time>2019-09-14T11:31:16Z</time>
      </trkpt>
      <trkpt lat="59.454512442189" lon="17.97617980894">
        <ele>30.2</ele>
        <time>2019-09-14T11:31:22Z</time>
      </trkpt>
      <trkpt lat="59.454648061331" lon="17.975985013584">
        <ele>29</ele>
        <time>2019-09-14T11:31:28Z</time>
      </trkpt>
      <trkpt lat="59.454710003572" lon="17.975801198517">
        <ele>27.8</ele>
        <time>2019-09-14T11:31:32Z</time>
      </trkpt>
      <trkpt lat="59.454769598881" lon="17.975613946871">
        <ele>26.4</ele>
        <time>2019-09-14T11:31:36Z</time>
      </trkpt>
      <trkpt lat="59.454828104543" lon="17.975475980797">
        <ele>25.2</ele>
        <time>2019-09-14T11:31:39Z</time>
      </trkpt>
      <trkpt lat="59.454861380686" lon="17.975388725218">
        <ele>24</ele>
        <time>2019-09-14T11:31:41Z</time>
      </trkpt>
      <trkpt lat="59.454895997933" lon="17.975299122707">
        <ele>22.6</ele>
        <time>2019-09-14T11:31:43Z</time>
      </trkpt>
      <trkpt lat="59.454942517478" lon="17.975189487455">
        <ele>21.6</ele>
        <time>2019-09-14T11:31:46Z</time>
      </trkpt>
      <trkpt lat="59.454990881041" lon="17.97505328158">
        <ele>20.6</ele>
        <time>2019-09-14T11:31:50Z</time>
      </trkpt>
      <trkpt lat="59.455087105253" lon="17.974745498212">
        <ele>19.4</ele>
        <time>2019-09-14T11:31:57Z</time>
      </trkpt>
      <trkpt lat="59.455174193194" lon="17.9744229627">
        <ele>19.4</ele>
        <time>2019-09-14T11:32:04Z</time>
      </trkpt>
      <trkpt lat="59.455178467963" lon="17.97436345121">
        <ele>19.4</ele>
        <time>2019-09-14T11:32:06Z</time>
      </trkpt>
      <trkpt lat="59.455217779074" lon="17.973961203829">
        <ele>19.4</ele>
        <time>2019-09-14T11:32:15Z</time>
      </trkpt>
      <trkpt lat="59.455252061045" lon="17.973580162655">
        <ele>19.4</ele>
        <time>2019-09-14T11:32:23Z</time>
      </trkpt>
      <trkpt lat="59.455318445693" lon="17.973241450076">
        <ele>19.4</ele>
        <time>2019-09-14T11:32:29Z</time>
      </trkpt>
      <trkpt lat="59.455384243608" lon="17.972892176303">
        <ele>19.6</ele>
        <time>2019-09-14T11:32:36Z</time>
      </trkpt>
      <trkpt lat="59.455384578884" lon="17.972830485519">
        <ele>19.4</ele>
        <time>2019-09-14T11:32:37Z</time>
      </trkpt>
      <trkpt lat="59.45535390113" lon="17.972413905089">
        <ele>19</ele>
        <time>2019-09-14T11:32:44Z</time>
      </trkpt>
      <trkpt lat="59.45527930222" lon="17.972051974647">
        <ele>20.2</ele>
        <time>2019-09-14T11:32:50Z</time>
      </trkpt>
      <trkpt lat="59.455259101841" lon="17.971957091539">
        <ele>20.6</ele>
        <time>2019-09-14T11:32:52Z</time>
      </trkpt>
      <trkpt lat="59.455188610062" lon="17.971743101632">
        <ele>20.6</ele>
        <time>2019-09-14T11:32:56Z</time>
      </trkpt>
      <trkpt lat="59.455043687011" lon="17.971639752805">
        <ele>21.6</ele>
        <time>2019-09-14T11:33:02Z</time>
      </trkpt>
      <trkpt lat="59.454861213048" lon="17.971504888034">
        <ele>22.6</ele>
        <time>2019-09-14T11:33:10Z</time>
      </trkpt>
      <trkpt lat="59.454805389594" lon="17.971393408764">
        <ele>24</ele>
        <time>2019-09-14T11:33:14Z</time>
      </trkpt>
      <trkpt lat="59.454775633849" lon="17.971311349963">
        <ele>25.2</ele>
        <time>2019-09-14T11:33:17Z</time>
      </trkpt>
      <trkpt lat="59.454757864221" lon="17.971280001657">
        <ele>25.6</ele>
        <time>2019-09-14T11:33:18Z</time>
      </trkpt>
      <trkpt lat="59.454713691608" lon="17.971220825443">
        <ele>26.6</ele>
        <time>2019-09-14T11:33:21Z</time>
      </trkpt>
      <trkpt lat="59.454681588931" lon="17.971183609807">
        <ele>27.8</ele>
        <time>2019-09-14T11:33:23Z</time>
      </trkpt>
      <trkpt lat="59.454632973911" lon="17.971181598151">
        <ele>28.8</ele>
        <time>2019-09-14T11:33:26Z</time>
      </trkpt>
      <trkpt lat="59.454624927287" lon="17.971173383889">
        <ele>29.2</ele>
        <time>2019-09-14T11:33:27Z</time>
      </trkpt>
      <trkpt lat="59.454613024989" lon="17.971151339492">
        <ele>30</ele>
        <time>2019-09-14T11:33:29Z</time>
      </trkpt>
      <trkpt lat="59.454604643089" lon="17.971137593176">
        <ele>30.2</ele>
        <time>2019-09-14T11:33:30Z</time>
      </trkpt>
      <trkpt lat="59.454532894025" lon="17.971069196872">
        <ele>31.2</ele>
        <time>2019-09-14T11:33:35Z</time>
      </trkpt>
      <trkpt lat="59.454447985378" lon="17.970966853873">
        <ele>32.2</ele>
        <time>2019-09-14T11:33:40Z</time>
      </trkpt>
      <trkpt lat="59.454364417835" lon="17.970888650746">
        <ele>32.8</ele>
        <time>2019-09-14T11:33:45Z</time>
      </trkpt>
      <trkpt lat="59.454326196371" lon="17.970862415399">
        <ele>33.6</ele>
        <time>2019-09-14T11:33:47Z</time>
      </trkpt>
      <trkpt lat="59.454257464791" lon="17.97078773267">
        <ele>35</ele>
        <time>2019-09-14T11:33:51Z</time>
      </trkpt>
      <trkpt lat="59.454217650766" lon="17.970723694954">
        <ele>36.2</ele>
        <time>2019-09-14T11:33:54Z</time>
      </trkpt>
      <trkpt lat="59.454158474552" lon="17.9705086154">
        <ele>37.4</ele>
        <time>2019-09-14T11:33:59Z</time>
      </trkpt>
      <trkpt lat="59.454149254462" lon="17.970324716514">
        <ele>38.6</ele>
        <time>2019-09-14T11:34:03Z</time>
      </trkpt>
      <trkpt lat="59.454153110136" lon="17.970273586924">
        <ele>39</ele>
        <time>2019-09-14T11:34:04Z</time>
      </trkpt>
      <trkpt lat="59.454146823711" lon="17.970151881736">
        <ele>39.8</ele>
        <time>2019-09-14T11:34:07Z</time>
      </trkpt>
      <trkpt lat="59.454119750174" lon="17.970011401092">
        <ele>40.8</ele>
        <time>2019-09-14T11:34:10Z</time>
      </trkpt>
      <trkpt lat="59.454105500944" lon="17.96986740005">
        <ele>42</ele>
        <time>2019-09-14T11:34:13Z</time>
      </trkpt>
      <trkpt lat="59.454116900328" lon="17.969744269939">
        <ele>43</ele>
        <time>2019-09-14T11:34:16Z</time>
      </trkpt>
      <trkpt lat="59.454118073794" lon="17.969671347409">
        <ele>43.6</ele>
        <time>2019-09-14T11:34:18Z</time>
      </trkpt>
      <trkpt lat="59.454112290283" lon="17.969602029096">
        <ele>44.4</ele>
        <time>2019-09-14T11:34:20Z</time>
      </trkpt>
      <trkpt lat="59.454076415751" lon="17.969469595076">
        <ele>45.6</ele>
        <time>2019-09-14T11:34:24Z</time>
      </trkpt>
      <trkpt lat="59.453910705588" lon="17.969261472499">
        <ele>45.8</ele>
        <time>2019-09-14T11:34:32Z</time>
      </trkpt>
      <trkpt lat="59.453742480855" lon="17.969182347363">
        <ele>44.6</ele>
        <time>2019-09-14T11:34:39Z</time>
      </trkpt>
      <trkpt lat="59.453596887252" lon="17.969106239711">
        <ele>43.4</ele>
        <time>2019-09-14T11:34:45Z</time>
      </trkpt>
      <trkpt lat="59.453506111275" lon="17.969043124004">
        <ele>42.4</ele>
        <time>2019-09-14T11:34:49Z</time>
      </trkpt>
      <trkpt lat="59.453460597558" lon="17.969006746558">
        <ele>41.2</ele>
        <time>2019-09-14T11:34:51Z</time>
      </trkpt>
      <trkpt lat="59.453419023334" lon="17.968963579773">
        <ele>40</ele>
        <time>2019-09-14T11:34:53Z</time>
      </trkpt>
      <trkpt lat="59.453366887916" lon="17.968938014978">
        <ele>38.8</ele>
        <time>2019-09-14T11:34:55Z</time>
      </trkpt>
      <trkpt lat="59.45329279192" lon="17.96890851069">
        <ele>37.8</ele>
        <time>2019-09-14T11:34:58Z</time>
      </trkpt>
      <trkpt lat="59.453213499146" lon="17.968903984464">
        <ele>36.2</ele>
        <time>2019-09-14T11:35:01Z</time>
      </trkpt>
      <trkpt lat="59.45313940315" lon="17.968876156556">
        <ele>35</ele>
        <time>2019-09-14T11:35:04Z</time>
      </trkpt>
      <trkpt lat="59.452997162307" lon="17.968856962005">
        <ele>34</ele>
        <time>2019-09-14T11:35:09Z</time>
      </trkpt>
      <trkpt lat="59.452804378607" lon="17.968917982237">
        <ele>33.2</ele>
        <time>2019-09-14T11:35:16Z</time>
      </trkpt>
      <trkpt lat="59.452749728619" lon="17.968935248951">
        <ele>33</ele>
        <time>2019-09-14T11:35:18Z</time>
      </trkpt>
      <trkpt lat="59.452615953495" lon="17.969062150917">
        <ele>31.6</ele>
        <time>2019-09-14T11:35:22Z</time>
      </trkpt>
      <trkpt lat="59.452425935822" lon="17.969222161388">
        <ele>30.6</ele>
        <time>2019-09-14T11:35:31Z</time>
      </trkpt>
      <trkpt lat="59.452406657452" lon="17.969248229097">
        <ele>30.4</ele>
        <time>2019-09-14T11:35:32Z</time>
      </trkpt>
      <trkpt lat="59.452247317533" lon="17.969379238194">
        <ele>29.2</ele>
        <time>2019-09-14T11:35:38Z</time>
      </trkpt>
      <trkpt lat="59.452046654847" lon="17.969504715237">
        <ele>28.4</ele>
        <time>2019-09-14T11:35:44Z</time>
      </trkpt>
      <trkpt lat="59.452017737292" lon="17.969511672214">
        <ele>28.2</ele>
        <time>2019-09-14T11:35:45Z</time>
      </trkpt>
      <trkpt lat="59.45182009209" lon="17.969550480411">
        <ele>27.2</ele>
        <time>2019-09-14T11:35:53Z</time>
      </trkpt>
      <trkpt lat="59.451767872853" lon="17.969552156791">
        <ele>27.2</ele>
        <time>2019-09-14T11:35:55Z</time>
      </trkpt>
      <trkpt lat="59.451580537388" lon="17.969603537838">
        <ele>27.2</ele>
        <time>2019-09-14T11:36:01Z</time>
      </trkpt>
      <trkpt lat="59.45138004234" lon="17.969585684391">
        <ele>26.8</ele>
        <time>2019-09-14T11:36:05Z</time>
      </trkpt>
      <trkpt lat="59.451241992447" lon="17.96960839934">
        <ele>26.6</ele>
        <time>2019-09-14T11:36:09Z</time>
      </trkpt>
    </trkseg>
  </trk>
</gpx>